createdAt,value
2022-10-31T00:01:09.861Z,28.67
2022-10-31T00:03:36.384Z,23.52
2022-10-31T00:06:02.997Z,26.77
2022-10-31T00:08:29.662Z,24.13
2022-10-31T00:10:56.280Z,27.95
2022-10-31T00:15:54.338Z,20.50
2022-10-31T00:18:20.899Z,25.70
2022-10-31T00:20:47.428Z,23.50
2022-10-31T00:23:15.140Z,25.50
2022-10-31T00:25:41.769Z,26.48
2022-10-31T00:28:12.017Z,26.90
2022-10-31T00:30:38.710Z,23.27
2022-10-31T00:33:06.245Z,27.35
2022-10-31T00:35:33.254Z,25.58
2022-10-31T00:38:00.404Z,22.27
2022-10-31T00:40:27.550Z,23.10
2022-10-31T00:42:54.234Z,27.55
2022-10-31T00:45:21.019Z,25.60
2022-10-31T00:47:47.922Z,24.30
2022-10-31T00:50:14.809Z,28.58
2022-10-31T00:52:41.385Z,27.23
2022-10-31T00:55:08.083Z,27.70
2022-10-31T00:57:34.632Z,27.30
2022-10-31T01:00:05.081Z,24.67
2022-10-31T01:02:31.756Z,26.25
2022-10-31T01:04:58.414Z,24.63
2022-10-31T01:07:24.928Z,23.77
2022-10-31T01:09:51.798Z,27.98
2022-10-31T01:12:19.735Z,27.55
2022-10-31T01:14:46.732Z,24.58
2022-10-31T01:17:14.480Z,24.20
2022-10-31T01:19:41.145Z,23.80
2022-10-31T01:22:07.793Z,28.10
2022-10-31T01:24:34.816Z,21.05
2022-10-31T01:27:02.404Z,26.13
2022-10-31T01:29:32.154Z,24.27
2022-10-31T01:31:59.021Z,24.17
2022-10-31T01:34:25.609Z,31.83
2022-10-31T01:36:52.368Z,27.45
2022-10-31T01:39:20.268Z,28.63
2022-10-31T01:41:50.058Z,22.70
2022-10-31T01:44:16.714Z,26.35
2022-10-31T01:46:54.824Z,27.33
2022-10-31T01:49:52.376Z,29.60
2022-10-31T01:52:27.486Z,25.08
2022-10-31T01:55:08.979Z,24.67
2022-10-31T01:57:38.730Z,28.75
2022-10-31T02:00:10.403Z,22.08
2022-10-31T02:02:40.199Z,27.05
2022-10-31T02:05:10.633Z,28.58
2022-10-31T02:07:43.184Z,27.73
2022-10-31T02:10:09.865Z,28.73
2022-10-31T02:12:39.247Z,27.42
2022-10-31T02:15:06.879Z,30.67
2022-10-31T02:17:34.148Z,24.10
2022-10-31T02:20:19.860Z,29.80
2022-10-31T02:22:58.721Z,31.38
2022-10-31T02:26:06.140Z,28.55
2022-10-31T02:28:51.655Z,29.42
2022-10-31T02:31:26.092Z,30.05
2022-10-31T02:34:29.890Z,22.80
2022-10-31T02:37:08.992Z,28.80
2022-10-31T02:39:46.417Z,27.75
2022-10-31T02:43:07.106Z,28.40
2022-10-31T02:45:38.911Z,25.38
2022-10-31T02:48:15.825Z,29.30
2022-10-31T02:50:47.530Z,32.42
2022-10-31T02:53:17.268Z,30.80
2022-10-31T03:00:52.364Z,23.17
2022-10-31T03:03:40.823Z,30.55
2022-10-31T03:06:15.478Z,31.02
2022-10-31T03:08:56.086Z,28.77
2022-10-31T03:11:30.366Z,27.05
2022-10-31T03:14:12.271Z,34.35
2022-10-31T03:16:50.803Z,27.42
2022-10-31T03:19:40.631Z,25.83
2022-10-31T03:22:26.722Z,29.40
2022-10-31T03:24:55.849Z,28.00
2022-10-31T03:27:26.831Z,24.55
2022-10-31T03:29:58.097Z,26.70
2022-10-31T03:32:39.323Z,24.02
2022-10-31T03:35:09.994Z,32.88
2022-10-31T03:37:40.795Z,29.70
2022-10-31T03:40:13.681Z,28.05
2022-10-31T03:42:45.219Z,23.45
2022-10-31T03:45:17.776Z,22.20
2022-10-31T03:47:45.228Z,21.52
2022-10-31T03:50:16.566Z,27.25
2022-10-31T03:52:58.125Z,21.00
2022-10-31T03:55:33.765Z,18.85
2022-10-31T03:58:09.079Z,27.30
2022-10-31T04:00:39.805Z,26.30
2022-10-31T04:03:11.358Z,23.88
2022-10-31T04:05:43.660Z,25.08
2022-10-31T04:08:15.972Z,22.60
2022-10-31T04:10:47.986Z,26.40
2022-10-31T04:13:21.570Z,25.30
2022-10-31T04:15:57.443Z,27.42
2022-10-31T04:18:26.811Z,22.98
2022-10-31T04:21:06.911Z,21.20
2022-10-31T04:23:35.280Z,24.83
2022-10-31T04:26:12.672Z,23.00
2022-10-31T04:28:39.274Z,19.85
2022-10-31T04:31:06.094Z,22.15
2022-10-31T04:33:36.408Z,20.55
2022-10-31T04:36:03.297Z,18.20
2022-10-31T04:38:30.241Z,20.27
2022-10-31T04:40:56.891Z,19.23
2022-10-31T04:43:46.594Z,19.45
2022-10-31T04:46:13.951Z,18.45
2022-10-31T04:48:40.613Z,19.70
2022-10-31T04:51:07.922Z,19.17
2022-10-31T04:53:34.605Z,25.35
2022-10-31T04:56:30.609Z,21.58
2022-10-31T05:01:29.943Z,23.17
2022-10-31T05:03:58.730Z,16.15
2022-10-31T05:06:25.305Z,24.75
2022-10-31T05:08:52.008Z,29.30
2022-10-31T05:11:18.568Z,23.95
2022-10-31T05:13:45.306Z,30.08
2022-10-31T05:16:11.874Z,27.05
2022-10-31T05:19:16.903Z,28.63
2022-10-31T05:22:02.115Z,26.08
2022-10-31T05:24:29.446Z,22.58
2022-10-31T05:26:56.015Z,26.95
2022-10-31T05:29:22.831Z,21.08
2022-10-31T05:31:49.438Z,20.60
2022-10-31T05:34:35.958Z,25.35
2022-10-31T05:37:21.192Z,21.63
2022-10-31T05:39:47.865Z,19.75
2022-10-31T05:42:16.970Z,18.13
2022-10-31T05:44:43.609Z,20.13
2022-10-31T05:47:10.174Z,21.38
2022-10-31T05:49:55.538Z,18.00
2022-10-31T05:52:40.862Z,18.98
2022-10-31T05:55:17.686Z,17.63
2022-10-31T05:57:59.511Z,16.48
2022-10-31T06:00:27.623Z,18.85
2022-10-31T06:03:05.814Z,25.08
2022-10-31T06:05:41.894Z,18.87
2022-10-31T06:08:08.592Z,23.52
2022-10-31T06:10:36.043Z,19.67
2022-10-31T06:13:02.660Z,20.67
2022-10-31T06:15:43.705Z,19.67
2022-10-31T06:18:11.422Z,20.55
2022-10-31T06:20:50.072Z,23.90
2022-10-31T06:23:16.841Z,22.15
2022-10-31T06:25:49.700Z,21.38
2022-10-31T06:28:17.014Z,21.17
2022-10-31T06:31:07.282Z,18.92
2022-10-31T06:33:34.899Z,22.83
2022-10-31T06:36:02.888Z,22.58
2022-10-31T06:38:30.037Z,26.80
2022-10-31T06:40:57.807Z,26.75
2022-10-31T06:43:27.844Z,25.35
2022-10-31T06:46:12.985Z,30.08
2022-10-31T06:49:02.448Z,23.92
2022-10-31T06:51:38.017Z,24.23
2022-10-31T06:54:04.813Z,30.38
2022-10-31T06:56:31.640Z,25.95
2022-10-31T06:58:59.214Z,30.23
2022-10-31T07:01:44.585Z,31.23
2022-10-31T07:04:12.437Z,25.40
2022-10-31T07:06:39.138Z,28.42
2022-10-31T07:09:05.884Z,25.08
2022-10-31T07:11:32.448Z,26.45
2022-10-31T07:13:59.550Z,25.80
2022-10-31T07:16:26.288Z,27.65
2022-10-31T07:18:53.517Z,24.05
2022-10-31T07:21:20.819Z,33.42
2022-10-31T07:23:50.842Z,26.63
2022-10-31T07:26:43.427Z,30.88
2022-10-31T07:29:10.852Z,29.70
2022-10-31T07:31:37.864Z,35.63
2022-10-31T07:34:11.735Z,34.33
2022-10-31T07:37:04.178Z,29.60
2022-10-31T07:39:30.767Z,34.15
2022-10-31T07:41:59.738Z,35.67
2022-10-31T07:44:26.929Z,32.22
2022-10-31T07:47:12.274Z,34.95
2022-10-31T07:50:05.381Z,30.65
2022-10-31T07:53:03.078Z,27.25
2022-10-31T07:55:48.033Z,29.35
2022-10-31T07:58:16.893Z,32.33
2022-10-31T08:00:45.915Z,33.55
2022-10-31T08:03:18.917Z,33.67
2022-10-31T08:06:04.658Z,38.45
2022-10-31T08:08:57.250Z,34.85
2022-10-31T08:11:26.248Z,34.03
2022-10-31T08:13:53.025Z,35.05
2022-10-31T08:16:20.159Z,30.52
2022-10-31T08:19:07.049Z,33.97
2022-10-31T08:21:38.196Z,37.30
2022-10-31T08:24:06.169Z,32.92
2022-10-31T08:26:33.666Z,38.45
2022-10-31T08:29:00.709Z,46.72
2022-10-31T08:31:44.332Z,41.38
2022-10-31T08:34:29.392Z,40.03
2022-10-31T08:37:19.638Z,35.55
2022-10-31T08:39:48.920Z,33.88
2022-10-31T08:42:15.570Z,41.20
2022-10-31T08:44:42.232Z,41.45
2022-10-31T08:47:08.958Z,37.72
2022-10-31T08:52:05.131Z,43.95
2022-10-31T08:54:36.556Z,36.08
2022-10-31T08:57:21.961Z,42.13
2022-10-31T08:59:48.728Z,40.20
2022-10-31T09:02:24.503Z,46.78
2022-10-31T09:04:55.682Z,40.25
2022-10-31T09:07:22.323Z,39.05
2022-10-31T09:09:48.904Z,43.63
2022-10-31T09:12:15.486Z,38.17
2022-10-31T09:14:48.087Z,45.58
2022-10-31T09:17:23.712Z,45.50
2022-10-31T09:20:16.549Z,41.60
2022-10-31T09:22:47.717Z,45.55
2022-10-31T09:25:15.406Z,42.53
2022-10-31T09:28:39.944Z,45.40
2022-10-31T09:31:14.217Z,39.22
2022-10-31T09:33:49.596Z,42.13
2022-10-31T09:36:34.714Z,48.40
2022-10-31T09:39:03.688Z,44.42
2022-10-31T09:41:59.525Z,53.75
2022-10-31T09:44:36.658Z,44.65
2022-10-31T09:47:26.468Z,42.50
2022-10-31T09:50:19.866Z,51.03
2022-10-31T09:53:02.819Z,45.35
2022-10-31T09:55:39.903Z,39.90
2022-10-31T09:58:15.544Z,44.95
2022-10-31T10:00:44.403Z,52.17
2022-10-31T10:03:23.205Z,43.45
2022-10-31T10:06:25.430Z,51.20
2022-10-31T10:09:27.330Z,49.25
2022-10-31T10:12:49.414Z,49.67
2022-10-31T10:15:41.245Z,48.22
2022-10-31T10:18:10.858Z,52.47
2022-10-31T10:21:04.966Z,47.80
2022-10-31T10:24:03.992Z,47.25
2022-10-31T10:26:37.684Z,50.55
2022-10-31T10:29:28.175Z,48.20
2022-10-31T10:31:56.472Z,42.92
2022-10-31T10:34:48.648Z,46.78
2022-10-31T10:37:26.815Z,43.10
2022-10-31T10:40:02.209Z,41.20
2022-10-31T10:42:47.398Z,50.70
2022-10-31T10:45:37.976Z,43.13
2022-10-31T10:48:20.957Z,43.83
2022-10-31T10:50:51.362Z,42.75
2022-10-31T10:53:49.926Z,37.35
2022-10-31T10:56:35.958Z,41.70
2022-10-31T10:59:04.051Z,34.80
2022-10-31T11:01:30.901Z,37.78
2022-10-31T11:03:57.524Z,39.70
2022-10-31T11:06:28.439Z,40.60
2022-10-31T11:08:55.098Z,33.53
2022-10-31T11:11:28.869Z,34.58
2022-10-31T11:14:03.888Z,37.85
2022-10-31T11:16:36.784Z,36.17
2022-10-31T11:19:18.718Z,45.30
2022-10-31T11:21:52.628Z,42.45
2022-10-31T11:24:22.256Z,51.08
2022-10-31T11:26:50.485Z,42.63
2022-10-31T11:29:27.008Z,40.88
2022-10-31T11:31:56.928Z,42.08
2022-10-31T11:36:55.471Z,41.17
2022-10-31T11:39:24.991Z,44.65
2022-10-31T11:44:29.007Z,37.97
2022-10-31T11:46:59.758Z,41.42
2022-10-31T11:49:40.007Z,36.42
2022-10-31T11:52:13.570Z,40.35
2022-10-31T11:54:56.779Z,43.17
2022-10-31T11:57:29.355Z,39.60
2022-10-31T11:59:58.770Z,38.70
2022-10-31T12:04:56.359Z,40.53
2022-10-31T12:07:24.275Z,36.05
2022-10-31T12:09:51.135Z,42.95
2022-10-31T12:12:39.496Z,40.53
2022-10-31T12:15:28.477Z,40.22
2022-10-31T12:18:32.713Z,44.08
2022-10-31T12:21:41.141Z,44.28
2022-10-31T12:24:29.741Z,39.80
2022-10-31T12:27:04.777Z,39.83
2022-10-31T12:29:43.241Z,37.53
2022-10-31T12:32:25.866Z,37.43
2022-10-31T12:34:52.366Z,41.25
2022-10-31T12:37:49.946Z,45.65
2022-10-31T12:40:25.840Z,39.22
2022-10-31T12:43:12.109Z,37.72
2022-10-31T12:45:54.182Z,43.45
2022-10-31T12:49:02.620Z,38.10
2022-10-31T12:51:45.663Z,37.83
2022-10-31T12:54:12.298Z,45.30
2022-10-31T12:56:42.516Z,39.20
2022-10-31T12:59:27.993Z,34.97
2022-10-31T13:02:11.708Z,40.03
2022-10-31T13:04:46.217Z,41.85
2022-10-31T13:07:23.306Z,35.65
2022-10-31T13:10:04.454Z,34.17
2022-10-31T13:12:41.058Z,38.13
2022-10-31T13:15:30.895Z,33.45
2022-10-31T13:18:02.117Z,32.63
2022-10-31T13:20:35.981Z,34.70
2022-10-31T13:23:51.872Z,36.30
2022-10-31T13:26:30.164Z,32.75
2022-10-31T13:29:32.663Z,29.27
2022-10-31T13:32:05.138Z,34.67
2022-10-31T13:34:39.561Z,33.22
2022-10-31T13:37:12.210Z,32.45
2022-10-31T13:40:05.673Z,31.88
2022-10-31T13:42:54.350Z,33.35
2022-10-31T13:45:23.440Z,32.65
2022-10-31T13:48:16.182Z,33.08
2022-10-31T13:50:55.708Z,35.90
2022-10-31T13:53:24.056Z,32.60
2022-10-31T13:56:03.854Z,30.35
2022-10-31T13:58:32.835Z,31.27
2022-10-31T14:01:21.685Z,28.63
2022-10-31T14:04:38.298Z,28.98
2022-10-31T14:07:26.388Z,28.25
2022-10-31T14:10:07.771Z,33.70
2022-10-31T14:12:47.593Z,25.48
2022-10-31T14:15:59.856Z,27.42
2022-10-31T14:19:07.620Z,24.40
2022-10-31T14:24:58.466Z,23.35
2022-10-31T14:28:00.707Z,21.27
2022-10-31T14:30:48.800Z,25.63
2022-10-31T14:33:21.221Z,24.13
2022-10-31T14:36:18.912Z,23.23
2022-10-31T14:39:53.083Z,19.88
2022-10-31T14:43:24.903Z,17.10
2022-10-31T14:46:10.775Z,18.30
2022-10-31T14:52:10.121Z,23.48
2022-10-31T14:54:42.475Z,19.92
2022-10-31T14:57:25.737Z,20.25
2022-10-31T15:00:09.062Z,21.80
2022-10-31T15:03:15.474Z,15.63
2022-10-31T15:06:17.827Z,21.58
2022-10-31T15:12:43.068Z,27.17
2022-10-31T15:15:59.434Z,23.75
2022-10-31T15:18:39.477Z,23.83
2022-10-31T15:21:36.093Z,22.95
2022-10-31T15:24:03.832Z,25.80
2022-10-31T15:26:41.547Z,24.95
2022-10-31T15:29:23.566Z,21.08
2022-10-31T15:38:29.748Z,28.05
2022-10-31T15:45:15.482Z,29.27
2022-10-31T15:48:41.377Z,25.67
2022-10-31T15:51:30.223Z,26.13
2022-10-31T15:54:22.600Z,25.95
2022-10-31T16:00:02.323Z,25.75
2022-10-31T16:02:59.713Z,26.95
2022-10-31T16:09:24.461Z,25.00
2022-10-31T16:12:01.929Z,26.83
2022-10-31T16:20:09.687Z,24.48
2022-10-31T16:23:12.923Z,27.35
2022-10-31T16:25:46.546Z,20.90
2022-10-31T16:28:48.802Z,24.55
2022-10-31T16:32:14.885Z,27.83
2022-10-31T16:47:24.604Z,33.63
2022-10-31T16:58:27.739Z,23.40
2022-10-31T16:59:20.300Z,34.85
2022-10-31T17:08:33.582Z,28.83
2022-10-31T17:11:00.332Z,30.17
2022-10-31T17:13:30.248Z,28.75
2022-10-31T17:16:00.013Z,32.75
2022-10-31T17:18:31.334Z,27.65
2022-10-31T17:21:27.826Z,28.13
2022-10-31T17:23:56.731Z,30.60
2022-10-31T17:26:23.470Z,36.03
2022-10-31T17:28:49.982Z,32.83
2022-10-31T17:31:31.667Z,34.65
2022-10-31T17:34:02.304Z,33.55
2022-10-31T17:36:30.720Z,28.90
2022-10-31T17:38:57.550Z,29.85
2022-10-31T17:41:24.421Z,28.25
2022-10-31T17:43:56.045Z,30.02
2022-10-31T17:46:23.176Z,26.83
2022-10-31T17:48:50.064Z,25.02
2022-10-31T17:51:17.097Z,30.80
2022-10-31T17:53:43.753Z,26.67
2022-10-31T17:56:10.727Z,30.60
2022-10-31T17:58:38.249Z,45.95
2022-10-31T18:01:13.191Z,28.02
2022-10-31T18:03:40.575Z,28.25
2022-10-31T18:06:08.599Z,27.90
2022-10-31T18:08:37.598Z,28.80
2022-10-31T18:11:09.646Z,26.00
2022-10-31T18:13:37.161Z,29.55
2022-10-31T18:16:10.220Z,36.72
2022-10-31T18:18:37.036Z,25.65
2022-10-31T18:21:04.131Z,30.05
2022-10-31T18:23:31.222Z,28.15
2022-10-31T18:25:58.240Z,30.02
2022-10-31T18:28:25.277Z,32.00
2022-10-31T18:30:56.671Z,28.08
2022-10-31T18:36:23.133Z,29.63
2022-10-31T18:38:55.150Z,26.73
2022-10-31T18:41:29.422Z,26.95
2022-10-31T18:44:00.086Z,24.65
2022-10-31T18:46:37.041Z,28.27
2022-10-31T18:49:12.554Z,28.52
2022-10-31T18:52:00.683Z,29.90
2022-10-31T18:54:28.476Z,29.38
2022-10-31T18:57:01.409Z,34.33
2022-10-31T18:59:35.562Z,33.88
2022-10-31T19:02:16.583Z,36.60
2022-10-31T19:04:43.724Z,36.22
2022-10-31T19:07:10.312Z,35.72
2022-10-31T19:12:34.655Z,25.83
2022-10-31T19:15:19.238Z,28.85
2022-10-31T19:17:52.865Z,33.33
2022-10-31T19:20:25.933Z,30.33
2022-10-31T19:26:34.722Z,26.90
2022-10-31T19:29:07.432Z,29.75
2022-10-31T19:31:34.007Z,33.72
2022-10-31T19:34:00.633Z,32.33
2022-10-31T19:36:27.662Z,30.80
2022-10-31T19:38:54.265Z,30.55
2022-10-31T19:41:30.657Z,35.28
2022-10-31T19:43:59.680Z,31.00
2022-10-31T19:46:52.787Z,26.48
2022-10-31T19:49:13.330Z,30.13
2022-10-31T19:51:39.939Z,29.15
2022-10-31T19:54:07.772Z,26.15
2022-10-31T19:56:34.679Z,27.05
2022-10-31T19:59:02.655Z,28.45
2022-10-31T20:01:29.639Z,32.55
2022-10-31T20:03:56.225Z,30.60
2022-10-31T20:06:34.854Z,26.27
2022-10-31T20:09:03.858Z,22.83
2022-10-31T20:11:43.207Z,22.88
2022-10-31T20:14:14.950Z,25.33
2022-10-31T20:16:42.440Z,25.92
2022-10-31T20:19:09.492Z,25.75
2022-10-31T20:21:38.540Z,26.17
2022-10-31T20:24:07.932Z,27.88
2022-10-31T20:26:35.552Z,25.55
2022-10-31T20:29:03.241Z,27.15
2022-10-31T20:31:32.873Z,24.90
2022-10-31T20:33:59.909Z,24.05
2022-10-31T20:36:28.654Z,27.25
2022-10-31T20:38:55.553Z,29.52
2022-10-31T20:41:22.131Z,23.88
2022-10-31T20:43:48.976Z,21.60
2022-10-31T20:46:18.713Z,24.95
2022-10-31T20:48:45.935Z,19.88
2022-10-31T20:51:25.154Z,22.95
2022-10-31T20:53:53.303Z,25.60
2022-10-31T20:56:22.546Z,23.23
2022-10-31T20:58:50.078Z,26.33
2022-10-31T21:01:22.738Z,22.70
2022-10-31T21:03:50.702Z,23.85
2022-10-31T21:06:19.018Z,25.00
2022-10-31T21:08:46.066Z,26.75
2022-10-31T21:11:18.396Z,21.95
2022-10-31T21:13:47.067Z,25.85
2022-10-31T21:16:17.042Z,20.07
2022-10-31T21:18:45.046Z,27.73
2022-10-31T21:21:20.136Z,20.88
2022-10-31T21:26:52.146Z,30.83
2022-10-31T21:29:20.596Z,23.90
2022-10-31T21:31:48.130Z,17.87
2022-10-31T21:34:15.089Z,28.63
2022-10-31T21:36:41.817Z,26.58
2022-10-31T21:39:09.425Z,25.25
2022-10-31T21:41:36.235Z,22.50
2022-10-31T21:44:02.797Z,25.45
2022-10-31T21:46:31.970Z,21.95
2022-10-31T21:49:07.162Z,21.75
2022-10-31T21:51:36.323Z,22.77
2022-10-31T21:54:22.064Z,28.83
2022-10-31T21:56:49.368Z,21.65
2022-10-31T21:59:16.063Z,17.95
2022-10-31T22:01:42.820Z,22.27
2022-10-31T22:04:09.798Z,23.83
2022-10-31T22:06:37.150Z,24.75
2022-10-31T22:09:06.185Z,22.20
2022-10-31T22:11:34.349Z,19.08
2022-10-31T22:14:01.918Z,25.23
2022-10-31T22:16:30.540Z,26.58
2022-10-31T22:18:59.899Z,21.87
2022-10-31T22:21:28.029Z,22.20
2022-10-31T22:24:02.043Z,24.23
2022-10-31T22:26:33.799Z,23.48
2022-10-31T22:29:03.036Z,29.10
2022-10-31T22:31:30.978Z,22.35
2022-10-31T22:33:58.528Z,22.60
2022-10-31T22:36:27.597Z,25.05
2022-10-31T22:38:54.346Z,27.90
2022-10-31T22:41:29.403Z,28.38
2022-10-31T22:43:57.194Z,25.45
2022-10-31T22:46:29.667Z,24.98
2022-10-31T22:49:02.230Z,25.10
2022-10-31T22:51:31.982Z,32.22
2022-10-31T22:53:59.092Z,30.88
2022-10-31T22:56:28.717Z,26.88
2022-10-31T23:01:24.232Z,31.02
2022-10-31T23:03:51.219Z,24.92
2022-10-31T23:06:20.428Z,25.75
2022-10-31T23:08:47.682Z,21.88
2022-10-31T23:11:18.564Z,26.02
2022-10-31T23:14:05.240Z,24.65
2022-10-31T23:16:32.465Z,30.60
2022-10-31T23:18:59.296Z,26.17
2022-10-31T23:21:43.764Z,25.20
2022-10-31T23:24:13.491Z,28.35
2022-10-31T23:26:58.657Z,24.88
2022-10-31T23:29:25.269Z,21.33
2022-10-31T23:31:54.533Z,28.80
2022-10-31T23:34:24.093Z,27.85
2022-10-31T23:39:19.997Z,29.58
2022-10-31T23:41:49.425Z,26.67
2022-10-31T23:44:15.918Z,30.13
2022-10-31T23:46:42.562Z,22.10
2022-10-31T23:49:09.258Z,22.38
2022-10-31T23:51:35.907Z,24.25
2022-10-31T23:54:02.582Z,19.90
2022-10-31T23:56:29.147Z,19.63
2022-10-31T23:58:55.775Z,19.35
